createdAt,value
2022-12-04T01:28:30.748Z,2.20
2022-12-04T01:31:35.823Z,1.81
2022-12-04T01:34:41.309Z,1.66
2022-12-04T01:37:46.336Z,1.09
2022-12-04T01:40:45.384Z,0.99
2022-12-04T01:43:51.660Z,1.10
2022-12-04T01:47:01.330Z,0.81
2022-12-04T01:50:06.583Z,0.58
2022-12-04T01:53:11.520Z,0.67
2022-12-04T01:56:15.927Z,0.84
2022-12-04T01:59:21.061Z,1.02
2022-12-04T02:02:28.637Z,0.84
2022-12-04T02:05:35.585Z,0.65
2022-12-04T02:08:41.766Z,0.86
2022-12-04T02:12:18.095Z,0.93
2022-12-04T02:15:39.228Z,1.11
2022-12-04T02:18:53.926Z,1.00
2022-12-04T02:21:59.190Z,0.41
2022-12-04T02:25:37.656Z,0.22
2022-12-04T02:28:59.752Z,0.33
2022-12-04T02:32:26.645Z,0.58
2022-12-04T02:35:43.978Z,0.60
2022-12-04T02:39:17.312Z,0.45
2022-12-04T02:42:53.599Z,0.93
2022-12-04T02:46:01.519Z,0.54
2022-12-04T02:49:08.518Z,0.32
2022-12-04T02:52:13.646Z,0.67
2022-12-04T02:55:37.458Z,1.14
2022-12-04T02:58:45.845Z,1.21
2022-12-04T03:01:54.547Z,1.83
2022-12-04T03:05:00.004Z,1.31
2022-12-04T03:08:12.265Z,0.91
2022-12-04T03:11:18.353Z,0.99
2022-12-04T03:14:28.757Z,1.26
2022-12-04T03:17:41.395Z,1.61
2022-12-04T03:20:48.339Z,1.42
2022-12-04T03:24:01.323Z,1.67
2022-12-04T03:27:39.422Z,1.88
2022-12-04T03:30:52.188Z,1.87
2022-12-04T03:34:01.183Z,2.04
2022-12-04T03:37:10.757Z,2.32
2022-12-04T03:40:35.280Z,1.83
2022-12-04T03:43:58.720Z,2.00
2022-12-04T03:47:20.922Z,1.94
2022-12-04T03:50:32.729Z,1.92
2022-12-04T03:53:45.897Z,2.13
2022-12-04T03:56:54.508Z,2.05
2022-12-04T04:00:13.240Z,2.09
2022-12-04T04:03:45.911Z,1.96
2022-12-04T04:06:58.804Z,2.24
2022-12-04T04:10:05.289Z,2.97
2022-12-04T04:13:33.621Z,2.61
2022-12-04T04:16:57.569Z,2.33
2022-12-04T04:20:24.384Z,2.35
2022-12-04T04:23:47.164Z,2.44
2022-12-04T04:26:56.566Z,1.94
2022-12-04T04:30:01.233Z,2.87
2022-12-04T04:33:21.752Z,2.81
2022-12-04T04:36:40.856Z,2.75
2022-12-04T04:40:17.322Z,2.30
2022-12-04T04:43:35.205Z,2.84
2022-12-04T04:46:49.525Z,2.86
2022-12-04T04:49:54.733Z,2.29
2022-12-04T04:53:06.150Z,2.05
2022-12-04T04:56:10.748Z,2.87
2022-12-04T04:59:16.086Z,2.65
2022-12-04T05:02:20.834Z,2.50
2022-12-04T05:05:26.554Z,2.36
2022-12-04T05:08:31.420Z,2.90
2022-12-04T05:11:37.381Z,2.68
2022-12-04T05:14:43.741Z,2.93
2022-12-04T05:17:50.727Z,2.53
2022-12-04T05:20:55.480Z,2.74
2022-12-04T05:24:00.111Z,2.46
2022-12-04T05:26:58.411Z,2.00
2022-12-04T05:29:57.651Z,2.33
2022-12-04T05:33:03.121Z,2.35
2022-12-04T05:36:16.418Z,2.08
2022-12-04T05:39:21.999Z,2.48
2022-12-04T05:42:27.732Z,2.56
2022-12-04T05:45:33.178Z,2.13
2022-12-04T05:48:38.737Z,2.70
2022-12-04T05:51:44.639Z,2.76
2022-12-04T05:54:50.600Z,2.20
2022-12-04T05:57:57.174Z,1.90
2022-12-04T06:01:02.769Z,2.37
2022-12-04T06:04:07.938Z,2.23
2022-12-04T06:07:12.261Z,2.46
2022-12-04T06:10:17.574Z,2.63
2022-12-04T06:13:22.810Z,2.81
2022-12-04T06:16:31.161Z,2.58
2022-12-04T06:19:35.893Z,2.13
2022-12-04T06:22:41.611Z,3.00
2022-12-04T06:25:49.235Z,2.72
2022-12-04T06:28:55.365Z,2.78
2022-12-04T06:32:01.903Z,2.47
2022-12-04T06:35:08.632Z,2.61
2022-12-04T06:38:14.998Z,2.72
2022-12-04T06:41:22.467Z,3.11
2022-12-04T06:44:29.807Z,2.74
2022-12-04T06:47:34.393Z,2.76
2022-12-04T06:50:40.260Z,2.97
2022-12-04T06:53:45.761Z,3.02
2022-12-04T06:56:51.463Z,3.98
2022-12-04T06:59:56.751Z,3.49
2022-12-04T07:03:01.810Z,3.26
2022-12-04T07:06:08.034Z,3.37
2022-12-04T07:09:16.359Z,3.67
2022-12-04T07:12:22.557Z,3.79
2022-12-04T07:15:28.316Z,3.81
2022-12-04T07:18:33.296Z,4.14
2022-12-04T07:21:44.781Z,4.41
2022-12-04T07:24:50.142Z,4.74
2022-12-04T07:27:56.466Z,4.03
2022-12-04T07:31:03.233Z,3.75
2022-12-04T07:34:09.069Z,3.80
2022-12-04T07:37:14.691Z,3.72
2022-12-04T07:40:20.788Z,3.80
2022-12-04T07:43:27.712Z,4.14
2022-12-04T07:46:39.473Z,4.57
2022-12-04T07:49:43.926Z,4.50
2022-12-04T07:52:54.119Z,4.51
2022-12-04T07:56:00.499Z,4.58
2022-12-04T07:59:07.028Z,4.78
2022-12-04T08:02:13.427Z,4.73
2022-12-04T08:05:18.285Z,4.86
2022-12-04T08:08:22.910Z,4.95
2022-12-04T08:11:30.872Z,5.17
2022-12-04T08:14:36.054Z,5.27
2022-12-04T08:17:40.742Z,5.03
2022-12-04T08:20:45.352Z,4.77
2022-12-04T08:23:51.332Z,5.08
2022-12-04T08:26:58.099Z,5.51
2022-12-04T08:30:03.688Z,5.69
2022-12-04T08:33:09.441Z,5.48
2022-12-04T08:36:15.068Z,5.02
2022-12-04T08:39:21.312Z,5.17
2022-12-04T08:42:26.874Z,5.79
2022-12-04T08:45:32.070Z,5.66
2022-12-04T08:48:39.093Z,5.67
2022-12-04T08:51:45.637Z,5.73
2022-12-04T08:54:51.190Z,5.96
2022-12-04T08:57:56.299Z,5.99
2022-12-04T09:01:03.762Z,6.17
2022-12-04T09:04:09.217Z,6.24
2022-12-04T09:07:14.611Z,6.93
2022-12-04T09:10:21.130Z,6.90
2022-12-04T09:13:26.699Z,7.12
2022-12-04T09:16:37.452Z,7.14
2022-12-04T09:19:43.842Z,7.16
2022-12-04T09:23:03.519Z,6.95
2022-12-04T09:25:55.364Z,6.47
2022-12-04T09:29:01.413Z,6.61
2022-12-04T09:32:06.765Z,6.69
2022-12-04T09:35:12.506Z,6.72
2022-12-04T09:38:17.970Z,6.76
2022-12-04T09:41:39.774Z,6.47
2022-12-04T09:44:58.097Z,6.28
2022-12-04T09:48:09.115Z,6.08
2022-12-04T09:51:14.480Z,6.59
2022-12-04T09:54:34.922Z,6.23
2022-12-04T09:58:02.729Z,6.52
2022-12-04T10:01:07.548Z,6.80
2022-12-04T10:04:13.089Z,6.61
2022-12-04T10:07:48.042Z,7.06
2022-12-04T10:11:18.534Z,6.84
2022-12-04T10:14:37.535Z,7.22
2022-12-04T10:18:05.183Z,7.21
2022-12-04T10:21:38.514Z,7.01
2022-12-04T10:25:00.412Z,7.18
2022-12-04T10:28:36.727Z,7.04
2022-12-04T10:31:42.251Z,6.94
2022-12-04T10:34:47.774Z,6.90
2022-12-04T10:37:54.348Z,7.08
2022-12-04T10:41:03.219Z,7.49
2022-12-04T10:44:08.944Z,7.41
2022-12-04T10:47:17.720Z,7.02
2022-12-04T10:50:33.589Z,7.01
2022-12-04T10:53:38.528Z,6.95
2022-12-04T10:56:44.754Z,7.34
2022-12-04T10:59:50.099Z,6.85
2022-12-04T11:02:55.247Z,7.31
2022-12-04T11:06:03.130Z,7.17
2022-12-04T11:09:09.247Z,7.36
2022-12-04T11:12:28.472Z,7.56
2022-12-04T11:15:33.854Z,7.63
2022-12-04T11:18:36.023Z,7.50
2022-12-04T11:21:35.664Z,7.59
2022-12-04T11:24:42.986Z,7.74
2022-12-04T11:27:48.932Z,7.66
2022-12-04T11:30:54.203Z,7.73
2022-12-04T11:34:05.876Z,7.47
2022-12-04T11:37:11.704Z,7.37
2022-12-04T11:40:21.310Z,7.74
2022-12-04T11:43:29.563Z,7.86
2022-12-04T11:46:40.895Z,7.75
2022-12-04T11:49:46.509Z,8.28
2022-12-04T11:52:59.739Z,7.83
2022-12-04T11:56:29.279Z,7.81
2022-12-04T11:59:55.483Z,7.98
2022-12-04T12:03:25.536Z,8.02
2022-12-04T12:06:52.662Z,7.57
2022-12-04T12:10:12.463Z,8.02
2022-12-04T12:13:42.283Z,8.25
2022-12-04T12:20:19.891Z,7.96
2022-12-04T12:23:35.679Z,7.55
2022-12-04T12:26:46.355Z,7.60
2022-12-04T12:30:19.804Z,7.46
2022-12-04T12:33:35.703Z,7.42
2022-12-04T12:36:43.689Z,8.39
2022-12-04T12:40:03.971Z,7.87
2022-12-04T12:43:16.009Z,8.32
2022-12-04T12:46:37.049Z,7.67
2022-12-04T12:49:51.499Z,7.65
2022-12-04T12:53:07.266Z,7.77
2022-12-04T12:56:13.452Z,7.67
2022-12-04T12:59:20.047Z,7.48
2022-12-04T13:02:50.072Z,7.66
2022-12-04T13:05:59.629Z,7.41
2022-12-04T13:09:37.198Z,7.59
2022-12-04T13:12:42.376Z,7.74
2022-12-04T13:16:03.046Z,7.90
2022-12-04T13:19:15.669Z,7.67
2022-12-04T13:22:43.236Z,7.67
2022-12-04T13:26:34.517Z,8.16
2022-12-04T13:30:21.271Z,8.34
2022-12-04T13:33:52.779Z,7.91
2022-12-04T13:37:17.252Z,8.04
2022-12-04T13:40:36.379Z,7.89
2022-12-04T13:44:07.173Z,7.53
2022-12-04T13:47:19.119Z,7.74
2022-12-04T13:50:34.652Z,8.12
2022-12-04T13:53:51.339Z,8.16
2022-12-04T13:57:05.237Z,8.06
2022-12-04T14:00:24.362Z,7.85
2022-12-04T14:03:50.777Z,8.35
2022-12-04T14:06:59.767Z,8.07
2022-12-04T14:10:06.943Z,8.16
2022-12-04T14:13:33.522Z,7.66
2022-12-04T14:16:52.434Z,8.22
2022-12-04T14:20:02.896Z,8.08
2022-12-04T14:23:05.790Z,8.69
2022-12-04T14:26:11.922Z,8.13
2022-12-04T14:29:46.793Z,7.69
2022-12-04T14:32:53.607Z,8.14
2022-12-04T14:36:05.391Z,7.77
2022-12-04T14:39:18.773Z,7.90
2022-12-04T14:42:40.071Z,7.70
2022-12-04T14:45:54.369Z,8.30
2022-12-04T14:49:12.511Z,8.75
2022-12-04T14:52:33.246Z,10.16
2022-12-04T14:56:07.994Z,10.65
2022-12-04T14:59:13.517Z,6.73
2022-12-04T15:02:17.850Z,6.60
2022-12-04T15:05:29.795Z,6.60
2022-12-04T15:08:35.198Z,6.79
2022-12-04T15:11:58.723Z,6.59
2022-12-04T15:15:04.435Z,8.55
2022-12-04T15:18:30.189Z,6.13
2022-12-04T15:21:37.161Z,6.12
2022-12-04T15:24:42.949Z,6.89
2022-12-04T15:27:48.903Z,10.12
2022-12-04T15:30:54.165Z,7.16
2022-12-04T15:33:54.309Z,6.39
2022-12-04T15:37:14.386Z,8.00
2022-12-04T15:40:23.566Z,9.30
2022-12-04T15:43:31.082Z,8.67
2022-12-04T15:46:46.802Z,8.23
2022-12-04T15:49:52.751Z,8.36
2022-12-04T15:53:33.241Z,6.31
2022-12-04T15:56:39.396Z,8.12
2022-12-04T15:59:44.672Z,6.26
2022-12-04T16:02:55.721Z,7.67
2022-12-04T16:06:00.664Z,8.25
2022-12-04T16:09:13.485Z,5.89
2022-12-04T16:12:32.877Z,6.14
2022-12-04T19:26:25.295Z,19.78
2022-12-04T19:29:32.590Z,18.71
2022-12-04T19:32:38.665Z,18.95
2022-12-04T19:35:44.735Z,18.71
2022-12-04T19:38:49.695Z,18.23
2022-12-04T19:41:56.217Z,18.14
2022-12-04T19:45:00.392Z,20.32
2022-12-04T19:48:06.305Z,19.21
2022-12-04T19:51:17.072Z,19.45
2022-12-04T19:54:26.310Z,18.81
2022-12-04T19:57:31.369Z,18.13
2022-12-04T20:00:36.399Z,17.53
2022-12-04T20:03:42.348Z,16.56
2022-12-04T20:06:53.226Z,15.46
2022-12-04T20:09:59.023Z,15.17
2022-12-04T20:13:04.039Z,14.61
2022-12-04T20:16:10.259Z,14.35
2022-12-04T20:19:17.484Z,14.26
2022-12-04T20:22:23.450Z,13.58
2022-12-04T20:25:29.704Z,13.18
2022-12-04T20:28:35.943Z,13.30
2022-12-04T20:31:47.344Z,12.73
2022-12-04T20:34:52.455Z,13.55
2022-12-04T20:37:58.067Z,12.85
2022-12-04T20:41:03.900Z,12.58
2022-12-04T20:44:10.582Z,12.50
2022-12-04T20:47:16.919Z,12.31
2022-12-04T20:50:23.318Z,11.81
2022-12-04T20:53:29.428Z,12.15
2022-12-04T20:56:37.153Z,12.30
2022-12-04T20:59:43.042Z,13.62
2022-12-04T21:02:50.238Z,12.08
2022-12-04T21:05:58.421Z,12.03
2022-12-04T21:09:04.872Z,11.97
2022-12-04T21:12:10.175Z,11.34
2022-12-04T21:15:33.318Z,11.61
2022-12-04T21:18:38.867Z,11.82
2022-12-04T21:21:45.493Z,12.77
2022-12-04T21:24:50.967Z,11.66
2022-12-04T21:27:56.869Z,11.82
2022-12-04T21:31:03.255Z,12.06
2022-12-04T21:34:08.019Z,11.90
2022-12-04T21:37:13.246Z,11.07
2022-12-04T21:40:18.779Z,10.79
2022-12-04T21:43:24.362Z,10.79
2022-12-04T21:46:31.036Z,11.07
2022-12-04T21:49:37.688Z,11.33
2022-12-04T21:52:43.954Z,10.91
2022-12-04T21:55:49.466Z,10.57
2022-12-04T21:58:55.278Z,10.58
2022-12-04T22:02:01.148Z,10.37
2022-12-04T22:05:06.589Z,10.22
2022-12-04T22:08:14.280Z,10.43
2022-12-04T22:11:24.539Z,10.17
2022-12-04T22:14:29.742Z,9.25
2022-12-04T22:17:35.644Z,9.69
2022-12-04T22:20:41.036Z,9.61
2022-12-04T22:23:47.040Z,8.97
2022-12-04T22:26:53.687Z,9.04
2022-12-04T22:29:59.682Z,8.91
2022-12-04T22:33:05.895Z,8.52
2022-12-04T22:36:16.066Z,8.86
2022-12-04T22:39:14.420Z,8.75
2022-12-04T22:42:07.810Z,8.32
2022-12-04T22:45:13.696Z,8.60
2022-12-04T22:48:19.404Z,9.19
2022-12-04T22:51:33.527Z,8.81
2022-12-04T22:54:38.905Z,8.47
2022-12-04T22:57:43.464Z,9.07
2022-12-04T23:00:48.992Z,9.14
2022-12-04T23:03:54.556Z,8.64
2022-12-04T23:06:59.712Z,8.77
2022-12-04T23:09:58.386Z,9.07
2022-12-04T23:12:53.130Z,8.95
2022-12-04T23:16:02.444Z,8.56
2022-12-04T23:19:07.321Z,8.10
2022-12-04T23:22:12.804Z,7.54
2022-12-04T23:25:18.146Z,7.65
2022-12-04T23:28:23.673Z,7.35
2022-12-04T23:31:31.129Z,7.39
2022-12-04T23:34:36.146Z,8.01
2022-12-04T23:37:42.407Z,7.46
2022-12-04T23:40:47.223Z,7.68
2022-12-04T23:43:53.421Z,7.34
2022-12-04T23:46:58.861Z,7.29
2022-12-04T23:50:03.919Z,7.85
2022-12-04T23:53:03.069Z,7.81
2022-12-04T23:56:14.621Z,8.21
2022-12-04T23:59:20.705Z,7.67
